Time;durP1;ratioP1;P1;durP2;ratioP2;P2;SDS_P1;SDS_P2;PMS_P1;PMS_P2;Temp;Humidity;BMP_temperature;BMP_pressure;BME280_temperature;BME280_humidity;BME280_pressure;Samples;Min_cycle;Max_cycle;Signal;HPM_P1;HPM_P2
2022/03/07 00:01:16;;;;;;;15.73;12.82;;;7.50;99.90;;;7.81;65.10;102664.66;5095535;28;20146;-73
2022/03/07 00:03:44;;;;;;;;;;;7.50;99.90;;;7.78;65.19;102656.63;5096025;28;20044;-73
2022/03/07 00:06:13;;;;;;;17.88;12.13;;;7.50;99.90;;;7.80;64.87;102657.59;5094175;28;20373;-73
2022/03/07 00:08:41;;;;;;;17.83;11.45;;;7.50;99.90;;;7.76;64.69;102639.88;5095210;28;20115;-73
2022/03/07 00:11:09;;;;;;;21.58;11.85;;;7.50;99.90;;;7.73;64.58;102655.59;5095283;28;20490;-73
2022/03/07 00:13:39;;;;;;;19.83;12.20;;;7.50;99.90;;;7.78;64.30;102655.75;5095222;28;20131;-73
2022/03/07 00:16:07;;;;;;;19.42;11.73;;;7.50;99.90;;;7.81;64.27;102663.75;5095495;28;20060;-73
2022/03/07 00:18:36;;;;;;;19.40;12.07;;;7.50;99.90;;;7.78;64.10;102656.63;5095421;28;20400;-74
2022/03/07 00:21:08;;;;;;;18.23;11.65;;;7.50;99.90;;;7.74;63.81;102660.00;5095274;28;20052;-72
2022/03/07 00:23:37;;;;;;;16.42;11.80;;;7.50;99.90;;;7.73;63.52;102660.84;5095158;28;20093;-73
2022/03/07 00:26:06;;;;;;;17.20;11.68;;;7.50;99.90;;;7.74;63.27;102662.63;5095019;28;20578;-72
2022/03/07 00:28:35;;;;;;;15.40;10.95;;;7.50;99.90;;;6.97;63.02;102525.56;5094888;28;20538;-72
2022/03/07 00:31:07;;;;;;;17.92;11.75;;;7.50;99.90;;;7.73;63.22;102663.50;5095306;28;20482;-73
2022/03/07 00:33:36;;;;;;;;;;;7.50;99.90;;;7.69;63.07;102665.94;5077245;28;20093;-73
2022/03/07 00:36:07;;;;;;;15.82;11.10;;;7.40;99.90;;;7.65;63.02;102667.56;5095211;28;19924;-73
2022/03/07 00:38:36;;;;;;;18.13;11.60;;;7.40;99.90;;;7.48;62.92;102647.63;5094724;28;20082;-73
2022/03/07 00:41:05;;;;;;;16.98;10.75;;;7.40;99.90;;;7.60;62.82;102669.16;5094909;28;20094;-73
2022/03/07 00:43:33;;;;;;;17.20;11.63;;;7.30;99.90;;;7.55;62.97;102667.22;5094794;28;20397;-73
2022/03/07 00:46:05;;;;;;;17.67;11.95;;;7.30;99.90;;;7.49;63.24;102669.63;5076789;28;20044;-73
2022/03/07 00:48:35;;;;;;;17.25;11.70;;;7.30;99.90;;;7.40;62.98;102657.00;5094794;28;20173;-73
2022/03/07 00:51:05;;;;;;;13.90;11.25;;;7.30;99.90;;;7.53;62.64;102675.03;5095072;28;20036;-73
2022/03/07 00:53:33;;;;;;;15.75;11.52;;;7.30;99.90;;;7.32;62.89;102644.41;5094878;28;20047;-73
2022/03/07 00:56:01;;;;;;;17.55;11.50;;;7.20;99.90;;;7.44;63.04;102665.88;5076513;28;20532;-73
2022/03/07 00:58:31;;;;;;;12.93;10.60;;;7.20;99.90;;;7.44;62.94;102672.06;5094580;28;20174;-73
2022/03/07 01:00:59;;;;;;;16.67;11.30;;;7.20;99.90;;;7.45;62.86;102678.22;5076390;28;20047;-73
2022/03/07 01:03:30;;;;;;;16.23;11.82;;;7.20;99.90;;;7.37;62.89;102670.06;5094633;28;20044;-73
2022/03/07 01:05:58;;;;;;;15.63;12.00;;;7.20;99.90;;;7.37;62.85;102675.31;5094670;28;20059;-73
2022/03/07 01:08:28;;;;;;;15.15;11.32;;;7.10;99.90;;;7.36;62.77;102676.13;5094357;28;20055;-73
2022/03/07 01:10:56;;;;;;;15.77;11.55;;;7.10;99.90;;;7.37;62.89;102675.31;5094429;28;20401;-74
2022/03/07 01:13:25;;;;;;;16.42;11.13;;;7.10;99.90;;;7.23;62.71;102652.84;5094344;28;20075;-73
2022/03/07 01:15:53;;;;;;;16.40;11.50;;;7.10;99.90;;;7.33;62.73;102686.56;5076139;28;20382;-73
2022/03/07 01:18:22;;;;;;;15.23;10.98;;;7.10;99.90;;;7.24;62.95;102680.94;5075590;28;20052;-73
2022/03/07 01:20:53;;;;;;;15.48;11.02;;;7.10;99.90;;;7.28;62.48;102685.47;5093873;28;20596;-73
2022/03/07 01:23:21;;;;;;;18.67;12.27;;;7.00;99.90;;;7.24;62.86;102686.19;5094281;28;20036;-73
2022/03/07 01:25:50;;;;;;;13.57;11.07;;;7.00;99.90;;;7.18;62.77;102684.22;5094272;28;20052;-73
2022/03/07 01:28:21;;;;;;;14.73;11.07;;;6.90;99.90;;;7.12;62.65;102712.06;5075769;28;20562;-73
2022/03/07 01:30:50;;;;;;;15.45;11.55;;;6.90;99.90;;;6.14;62.77;102556.50;5093777;28;20123;-73
2022/03/07 01:33:19;;;;;;;13.73;11.77;;;6.90;99.90;;;7.12;62.82;102680.50;5093663;28;20048;-73
2022/03/07 01:35:47;;;;;;;15.57;12.20;;;6.90;99.90;;;7.08;62.91;102687.34;5075730;28;20101;-73
2022/03/07 01:38:18;;;;;;;18.13;12.40;;;6.80;99.90;;;7.04;63.01;102682.81;5093802;28;20052;-73
2022/03/07 01:40:46;;;;;;;14.55;12.68;;;6.80;99.90;;;4.06;62.98;102166.56;5093841;28;20039;-73
2022/03/07 01:43:15;;;;;;;14.02;12.02;;;6.70;99.90;;;6.70;63.01;102631.44;5093503;28;20127;-73
2022/03/07 01:45:44;;;;;;;14.10;11.80;;;6.70;99.90;;;6.86;63.07;102657.53;5093653;28;20044;-73
2022/03/07 01:48:13;;;;;;;16.70;12.03;;;6.70;99.90;;;6.96;63.01;102676.38;5093602;28;20074;-73
2022/03/07 01:50:42;;;;;;;13.65;12.20;;;6.70;99.90;;;6.98;62.86;102676.41;5075639;28;20051;-73
2022/03/07 01:53:12;;;;;;;14.15;11.32;;;6.70;99.90;;;6.84;62.96;102649.56;5075357;28;20044;-73
2022/03/07 01:55:42;;;;;;;14.23;12.13;;;6.70;99.90;;;6.73;62.81;102628.97;5092390;28;20452;-73
2022/03/07 01:58:11;;;;;;;16.65;12.13;;;6.70;99.90;;;6.98;62.70;102682.59;5075372;28;20079;-73
2022/03/07 02:00:40;;;;;;;18.50;12.05;;;6.70;99.90;;;6.89;62.69;102670.81;5075493;28;20477;-73
2022/03/07 02:03:09;;;;;;;18.55;12.13;;;6.60;99.90;;;6.71;62.71;102646.41;5093360;28;20401;-73
2022/03/07 02:05:42;;;;;;;16.27;12.37;;;6.50;99.90;;;6.81;62.96;102665.25;5075303;28;20071;-73
2022/03/07 02:08:18;;;;;;;15.45;11.57;;;6.50;99.90;;;6.73;63.01;102661.41;5075317;28;20044;-73
2022/03/07 02:10:53;;;;;;;15.63;11.95;;;6.40;99.90;;;6.79;62.84;102664.28;5075373;28;20056;-73
2022/03/07 02:13:22;;;;;;;14.57;11.52;;;6.50;99.90;;;6.71;62.68;102654.28;5075225;28;20086;-73
2022/03/07 02:16:01;;;;;;;14.63;11.68;;;6.50;99.90;;;6.66;62.40;102648.84;5075036;28;20451;-73
2022/03/07 02:18:33;;;;;;;14.95;11.23;;;6.40;99.90;;;6.53;62.54;102656.16;5075171;28;20044;-73
2022/03/07 02:21:14;;;;;;;14.50;11.73;;;6.40;99.90;;;6.68;62.52;102660.31;5075316;28;20051;-72
2022/03/07 02:23:59;;;;;;;13.43;12.02;;;6.40;99.90;;;6.66;62.64;102653.22;5075185;28;20138;-72
2022/03/07 02:26:28;;;;;;;;;;;6.40;99.90;;;6.65;62.67;102659.31;5075530;28;20048;-72
2022/03/07 02:28:59;;;;;;;17.65;11.30;;;6.40;99.90;;;6.66;62.35;102647.97;5074008;28;19935;-73
2022/03/07 02:31:32;;;;;;;13.07;10.98;;;6.40;99.90;;;6.52;62.54;102680.69;5093130;28;20060;-72
2022/03/07 02:34:02;;;;;;;14.10;11.63;;;6.30;99.90;;;6.60;62.36;102658.22;5074964;28;20055;-73
2022/03/07 02:36:31;;;;;;;13.27;11.87;;;6.30;99.90;;;6.37;62.48;102649.38;5074927;28;20040;-73
2022/03/07 02:39:06;;;;;;;18.75;11.75;;;6.30;99.90;;;6.44;62.32;102624.28;5074930;28;20043;-73
2022/03/07 02:41:37;;;;;;;14.23;11.50;;;6.30;99.90;;;6.40;62.44;102631.13;5074875;28;20090;-73
2022/03/07 02:44:07;;;;;;;14.52;11.18;;;6.30;99.90;;;6.59;62.43;102654.69;5074424;28;20217;-60
2022/03/07 02:46:35;;;;;;;14.35;11.48;;;6.30;99.90;;;6.49;62.38;102627.97;5074145;28;20040;-60
2022/03/07 02:49:04;;;;;;;13.77;11.98;;;6.30;99.90;;;6.58;62.16;102652.88;5073908;28;20078;-60
2022/03/07 02:51:34;;;;;;;13.20;11.90;;;6.30;99.90;;;6.62;62.35;102649.53;5073922;28;20076;-60
2022/03/07 02:54:04;;;;;;;12.48;10.48;;;6.30;99.90;;;6.56;62.22;102641.44;5092421;28;20143;-58
2022/03/07 02:56:33;;;;;;;14.38;11.30;;;6.30;99.90;;;6.54;62.12;102622.09;5092189;28;20072;-57
2022/03/07 02:59:01;;;;;;;12.90;11.27;;;6.40;99.90;;;6.65;62.14;102636.53;5091817;28;20127;-58
2022/03/07 03:01:29;;;;;;;13.43;11.60;;;6.40;99.90;;;6.68;61.86;102635.78;5092220;28;20085;-57
2022/03/07 03:03:58;;;;;;;16.63;11.18;;;6.40;99.90;;;6.73;61.61;102635.13;5091716;28;20048;-57
2022/03/07 03:06:26;;;;;;;13.25;11.35;;;6.40;99.90;;;6.74;61.33;102636.00;5091598;28;20489;-58
2022/03/07 03:08:54;;;;;;;14.65;11.77;;;6.50;99.90;;;6.59;61.22;102606.47;5091525;28;20070;-57
2022/03/07 03:11:24;;;;;;;12.32;10.70;;;6.50;99.90;;;6.82;61.05;102634.56;5091615;28;20378;-58
2022/03/07 03:13:53;;;;;;;15.35;12.02;;;6.50;99.90;;;6.83;61.17;102642.50;5091817;28;20389;-58
2022/03/07 03:16:21;;;;;;;13.80;11.23;;;6.60;99.90;;;6.88;60.99;102640.06;5091382;28;20131;-57
2022/03/07 03:18:53;;;;;;;15.45;10.75;;;6.60;99.90;;;6.85;60.89;102635.56;5091838;28;20047;-58
2022/03/07 03:21:21;;;;;;;11.77;10.57;;;6.60;99.90;;;6.88;60.94;102640.06;5091465;28;20074;-57
2022/03/07 03:23:50;;;;;;;12.90;11.05;;;6.70;99.90;;;6.84;60.96;102638.16;5092051;28;20071;-58
2022/03/07 03:26:18;;;;;;;16.15;11.63;;;6.60;99.90;;;6.87;60.71;102639.16;5091408;28;20115;-58
2022/03/07 03:28:48;;;;;;;14.00;11.48;;;6.60;99.90;;;6.95;60.24;102644.75;5091418;28;20083;-57
2022/03/07 03:31:16;;;;;;;15.37;11.40;;;6.70;99.90;;;6.97;60.38;102641.31;5091740;28;20401;-57
2022/03/07 03:33:44;;;;;;;14.10;11.02;;;6.70;99.90;;;6.92;60.72;102639.34;5091752;28;20400;-58
2022/03/07 03:36:13;;;;;;;14.15;10.98;;;6.70;99.90;;;6.92;60.55;102637.63;5091944;28;20133;-59
2022/03/07 03:38:41;;;;;;;15.25;11.45;;;6.70;99.90;;;6.91;60.25;102634.94;5091775;28;20408;-57
2022/03/07 03:41:10;;;;;;;11.90;10.60;;;6.70;99.90;;;6.90;60.89;102636.66;5093498;28;20405;-58
2022/03/07 03:43:38;;;;;;;13.63;11.02;;;6.70;99.90;;;6.87;60.58;102635.66;5095265;28;20040;-57
2022/03/07 03:46:08;;;;;;;14.57;11.23;;;6.70;99.90;;;6.81;60.95;102632.78;5095115;28;20075;-57
2022/03/07 03:48:36;;;;;;;12.43;11.17;;;6.60;99.90;;;6.85;60.84;102632.06;5095521;28;20075;-57
2022/03/07 03:51:05;;;;;;;15.85;11.20;;;6.60;99.90;;;6.82;61.03;102624.03;5094713;28;20075;-57
2022/03/07 03:53:33;;;;;;;14.75;11.38;;;6.60;99.90;;;6.75;61.47;102633.44;5094998;28;20059;-57
2022/03/07 03:56:03;;;;;;;15.43;12.10;;;6.60;99.90;;;6.68;61.48;102620.88;5095031;28;20048;-57
2022/03/07 03:58:32;;;;;;;15.07;12.15;;;6.50;99.90;;;6.69;61.61;102622.69;5094711;28;20043;-57
2022/03/07 04:01:00;;;;;;;15.18;12.07;;;6.50;99.90;;;6.75;61.43;102627.28;5094619;28;20052;-58
2022/03/07 04:03:30;;;;;;;13.77;11.75;;;6.50;99.90;;;6.74;61.56;102623.75;5094931;28;20036;-57
2022/03/07 04:05:59;;;;;;;14.80;12.23;;;6.50;99.90;;;6.77;61.36;102625.59;5094592;28;20074;-57
2022/03/07 04:08:33;;;;;;;15.10;11.27;;;6.50;99.90;;;6.66;61.17;102625.19;5094799;28;20048;-57
2022/03/07 04:11:02;;;;;;;15.48;11.90;;;6.50;99.90;;;6.65;61.47;102630.38;5094535;28;20036;-57
2022/03/07 04:13:30;;;;;;;13.43;11.43;;;6.40;99.90;;;6.62;61.76;102628.50;5094819;28;20033;-57
2022/03/07 04:15:59;;;;;;;12.88;11.48;;;6.40;99.90;;;6.62;61.84;102627.66;5094770;28;20189;-57
2022/03/07 04:18:27;;;;;;;17.65;12.20;;;6.40;99.90;;;6.61;61.76;102629.38;5094444;28;20036;-57
2022/03/07 04:20:57;;;;;;;17.08;12.55;;;6.30;99.90;;;6.69;61.65;102632.28;5094723;28;20044;-58
2022/03/07 04:23:27;;;;;;;14.13;11.48;;;6.40;99.90;;;6.63;61.89;102632.06;5094685;28;20044;-58
2022/03/07 04:25:55;;;;;;;15.18;11.68;;;6.40;99.90;;;6.63;62.08;102638.22;5094648;28;20043;-57
2022/03/07 04:28:23;;;;;;;15.00;11.00;;;6.40;99.90;;;6.62;62.02;102632.91;5094376;28;20619;-57
2022/03/07 04:30:52;;;;;;;17.27;11.68;;;6.40;99.90;;;6.60;61.28;102635.44;5094253;28;20097;-58
2022/03/07 04:33:20;;;;;;;16.40;11.63;;;6.40;99.90;;;6.61;61.61;102628.47;5094556;28;20068;-57
2022/03/07 04:35:48;;;;;;;16.48;12.25;;;6.40;99.90;;;6.62;61.45;102625.88;5094837;28;20044;-58
2022/03/07 04:38:24;;;;;;;14.02;11.82;;;6.40;99.90;;;6.60;61.63;102618.81;5094862;28;20382;-57
2022/03/07 04:40:52;;;;;;;16.45;11.77;;;6.40;99.90;;;6.47;61.40;102629.63;5094245;28;20052;-58
2022/03/07 04:43:21;;;;;;;16.83;12.45;;;6.30;99.90;;;6.54;61.54;102622.09;5094346;28;20104;-60
2022/03/07 04:45:52;;;;;;;15.43;11.52;;;6.30;99.90;;;6.36;61.65;102606.47;5094373;28;20113;-60
2022/03/07 04:48:21;;;;;;;13.73;12.10;;;6.30;99.90;;;6.41;61.92;102626.78;5075812;28;20051;-60
2022/03/07 04:50:49;;;;;;;15.48;12.48;;;6.20;99.90;;;6.43;61.58;102628.63;5094136;28;20052;-60
2022/03/07 04:53:19;;;;;;;19.00;12.88;;;6.20;99.90;;;6.42;62.03;102621.59;5093818;28;20102;-60
2022/03/07 04:55:48;;;;;;;15.85;13.32;;;6.20;99.90;;;6.33;61.72;102622.09;5093929;28;20472;-60
2022/03/07 04:58:16;;;;;;;18.38;12.77;;;6.20;99.90;;;6.31;61.76;102623.75;5093925;28;20101;-60
2022/03/07 05:00:45;;;;;;;16.90;12.20;;;6.10;99.90;;;6.27;62.01;102627.09;5093803;28;20078;-61
2022/03/07 05:03:13;;;;;;;19.38;12.77;;;6.10;99.90;;;6.26;61.84;102624.41;5093793;28;20044;-60
2022/03/07 05:05:42;;;;;;;17.47;12.93;;;6.10;99.90;;;6.04;61.79;102585.84;5093971;28;20128;-66
2022/03/07 05:08:10;;;;;;;14.35;12.95;;;6.10;99.90;;;6.24;61.93;102621.72;5094365;28;20052;-60
2022/03/07 05:10:40;;;;;;;17.75;12.90;;;6.10;99.90;;;6.21;61.96;102621.59;5093893;28;20044;-60
2022/03/07 05:13:09;;;;;;;17.23;13.73;;;6.00;99.90;;;6.21;62.09;102621.59;5094326;28;20075;-59
2022/03/07 05:15:37;;;;;;;14.63;13.13;;;6.00;99.90;;;6.20;62.05;102625.06;5093384;28;20481;-60
2022/03/07 05:18:07;;;;;;;17.58;12.73;;;6.00;99.90;;;6.20;61.86;102619.81;5093653;28;20048;-60
2022/03/07 05:20:35;;;;;;;16.50;13.10;;;6.00;99.90;;;6.14;61.93;102616.91;5093627;28;20074;-59
2022/03/07 05:23:23;;;;;;;20.60;13.90;;;5.90;99.90;;;6.12;62.16;102623.84;5093569;28;20396;-60
2022/03/07 05:25:53;;;;;;;16.38;13.35;;;5.90;99.90;;;6.17;62.02;102621.41;5093938;28;20048;-59
2022/03/07 05:28:21;;;;;;;15.02;13.43;;;5.90;99.90;;;6.11;62.33;102618.53;5075135;28;20050;-59
2022/03/07 05:30:50;;;;;;;16.63;13.53;;;5.90;99.90;;;6.14;62.06;102619.56;5093138;28;20048;-59
2022/03/07 05:33:18;;;;;;;16.67;13.40;;;5.90;99.90;;;6.12;62.12;102615.06;5093290;28;20044;-59
2022/03/07 05:35:46;;;;;;;17.27;13.13;;;5.90;99.90;;;6.09;62.03;102622.81;5074694;28;20040;-59
2022/03/07 05:38:17;;;;;;;16.77;13.03;;;5.80;99.90;;;6.07;61.88;102619.25;5093277;28;20072;-59
2022/03/07 05:40:46;;;;;;;13.80;12.23;;;5.80;99.90;;;6.08;62.06;102621.91;5093428;28;20044;-60
2022/03/07 05:43:16;;;;;;;15.98;13.10;;;5.80;99.90;;;6.02;62.01;102626.91;5092802;28;20044;-59
2022/03/07 05:45:44;;;;;;;12.93;11.63;;;5.80;99.90;;;6.01;61.92;102622.50;5092744;28;20047;-59
2022/03/07 05:48:12;;;;;;;15.67;12.07;;;5.80;99.90;;;6.00;62.00;102630.34;5092977;28;20334;-60
2022/03/07 05:50:41;;;;;;;15.10;13.50;;;5.80;99.90;;;5.98;61.88;102632.88;5092568;28;20040;-59
2022/03/07 05:53:10;;;;;;;17.40;13.80;;;5.80;99.90;;;6.02;62.27;102632.16;5092928;28;20130;-59
2022/03/07 05:55:38;;;;;;;14.23;11.93;;;5.80;99.90;;;6.00;61.79;102630.34;5092564;28;20094;-59
2022/03/07 05:58:07;;;;;;;14.65;13.15;;;5.80;99.90;;;6.00;62.14;102639.09;5092453;28;20521;-59
2022/03/07 06:00:37;;;;;;;16.37;13.30;;;5.80;99.90;;;5.96;62.54;102641.53;5092780;28;20448;-58
2022/03/07 06:03:06;;;;;;;22.27;14.02;;;5.80;99.90;;;5.93;62.53;102649.25;5074093;28;20121;-59
2022/03/07 06:05:34;;;;;;;16.47;14.43;;;5.70;99.90;;;5.92;62.58;102656.25;5091778;28;20144;-59
2022/03/07 06:08:04;;;;;;;17.00;13.87;;;5.70;99.90;;;5.84;63.00;102657.66;5092410;28;20040;-59
2022/03/07 06:10:32;;;;;;;17.93;13.60;;;5.70;99.90;;;5.85;62.86;102656.81;5092192;28;20127;-58
2022/03/07 06:13:01;;;;;;;16.10;13.53;;;5.60;99.90;;;5.82;63.11;102663.63;5092277;28;20328;-59
2022/03/07 06:15:29;;;;;;;15.03;13.53;;;5.60;99.90;;;5.75;63.14;102661.59;5073928;28;20136;-59
2022/03/07 06:17:59;;;;;;;15.50;13.87;;;5.50;99.90;;;5.60;63.40;102663.50;5092410;28;20139;-59
2022/03/07 06:20:28;;;;;;;17.05;12.85;;;5.50;99.90;;;5.70;63.39;102664.00;5092465;28;20044;-59
2022/03/07 06:22:57;;;;;;;15.80;13.68;;;5.50;99.90;;;5.73;63.19;102658.88;5092742;28;20135;-59
2022/03/07 06:25:25;;;;;;;17.50;13.20;;;5.50;99.90;;;5.68;63.65;102663.03;5091955;28;20074;-59
2022/03/07 06:27:53;;;;;;;18.07;14.20;;;5.50;99.90;;;5.63;64.04;102655.78;5091905;28;20071;-59
2022/03/07 06:30:22;;;;;;;18.03;14.27;;;5.50;99.90;;;5.65;63.75;102662.91;5091790;28;20048;-58
2022/03/07 06:32:50;;;;;;;16.52;13.43;;;5.40;99.90;;;5.63;63.96;102661.94;5092037;28;20577;-59
2022/03/07 06:35:20;;;;;;;17.70;13.85;;;5.40;99.90;;;5.67;64.28;102652.47;5092356;28;20039;-59
2022/03/07 06:37:49;;;;;;;16.50;13.48;;;5.50;99.90;;;5.85;63.88;102663.78;5092179;28;20116;-59
2022/03/07 06:40:19;;;;;;;16.67;14.05;;;5.70;99.90;;;6.00;63.49;102662.72;5092090;28;20075;-59
2022/03/07 06:42:48;;;;;;;20.05;14.05;;;5.80;99.90;;;6.21;63.39;102674.13;5092180;28;20040;-59
2022/03/07 06:45:18;;;;;;;18.00;14.63;;;5.90;99.90;;;6.40;62.67;102667.94;5091695;28;20542;-59
2022/03/07 06:47:47;;;;;;;15.68;13.45;;;6.20;99.90;;;6.53;62.43;102671.94;5092155;28;20095;-59
2022/03/07 06:50:17;;;;;;;16.35;13.85;;;6.30;99.90;;;6.63;62.01;102668.84;5073453;28;20528;-60
2022/03/07 06:52:46;;;;;;;19.38;14.27;;;6.40;99.90;;;6.70;61.59;102670.88;5091674;28;20058;-59
2022/03/07 06:55:16;;;;;;;19.25;13.65;;;6.50;99.90;;;6.72;61.13;102674.47;5091645;28;20040;-59
2022/03/07 06:57:44;;;;;;;16.90;12.82;;;6.60;99.90;;;6.72;61.25;102678.00;5091943;28;20048;-58
2022/03/07 07:00:16;;;;;;;16.70;13.60;;;6.50;99.90;;;7.01;61.18;102684.41;5092069;28;20101;-59
2022/03/07 07:02:46;;;;;;;18.23;14.50;;;6.80;99.90;;;7.21;60.33;102689.63;5091971;28;20075;-59
2022/03/07 07:05:16;;;;;;;18.88;14.55;;;7.00;99.90;;;7.19;59.59;102687.78;5091638;28;20040;-59
2022/03/07 07:07:47;;;;;;;16.27;13.98;;;7.10;99.90;;;7.12;60.11;102676.09;5092024;28;20040;-60
2022/03/07 07:10:18;;;;;;;;;;;7.00;99.90;;;7.17;59.76;102655.25;5092182;28;20051;-59
2022/03/07 07:12:48;;;;;;;17.00;13.65;;;7.20;99.90;;;7.56;59.59;102688.31;5091938;28;19927;-60
2022/03/07 07:15:17;;;;;;;19.73;14.55;;;7.30;99.90;;;7.73;58.98;102686.28;5092295;28;20489;-59
2022/03/07 07:17:47;;;;;;;16.23;13.85;;;7.50;99.90;;;7.86;58.22;102691.16;5095775;28;20052;-59
2022/03/07 07:20:15;;;;;;;16.40;14.40;;;7.70;99.90;;;7.74;58.32;102656.50;5095727;28;20500;-59
2022/03/07 07:22:44;;;;;;;16.30;14.30;;;7.70;99.90;;;7.99;57.65;102690.75;5095942;28;20131;-59
2022/03/07 07:25:13;;;;;;;16.70;14.40;;;7.80;99.90;;;8.10;57.21;102703.47;5095540;28;20048;-59
2022/03/07 07:27:42;;;;;;;16.00;14.23;;;8.00;99.90;;;8.19;56.75;102700.25;5095562;28;20148;-59
2022/03/07 07:30:12;;;;;;;17.70;13.98;;;8.10;99.90;;;7.74;56.83;102699.50;5095824;28;20075;-59
2022/03/07 07:32:40;;;;;;;15.38;13.65;;;7.80;99.90;;;7.27;58.40;102689.88;5095599;28;20040;-59
2022/03/07 07:35:10;;;;;;;16.92;13.80;;;7.30;99.90;;;6.93;58.60;102691.13;5095892;28;20040;-60
2022/03/07 07:37:39;;;;;;;20.77;14.57;;;7.00;99.90;;;7.36;58.34;102688.41;5095840;28;20086;-60
2022/03/07 07:40:10;;;;;;;17.67;14.50;;;7.20;99.90;;;7.59;57.86;102679.66;5095691;28;20123;-58
2022/03/07 07:42:40;;;;;;;17.83;14.88;;;7.40;99.90;;;7.68;57.20;102691.41;5095459;28;20135;-59
2022/03/07 07:45:12;;;;;;;18.37;15.20;;;7.60;99.90;;;8.20;56.25;102699.41;5095485;28;20052;-58
2022/03/07 07:47:41;;;;;;;17.50;14.20;;;8.00;99.90;;;8.30;56.21;102704.19;5077221;28;20482;-59
2022/03/07 07:50:10;;;;;;;17.98;14.95;;;8.10;99.90;;;8.30;55.95;102717.38;5095114;28;20122;-59
2022/03/07 07:52:39;;;;;;;18.70;14.63;;;8.20;99.90;;;7.31;58.82;102706.66;5095040;28;20074;-60
2022/03/07 07:55:08;;;;;;;19.55;15.32;;;7.30;99.90;;;7.20;58.59;102690.44;5095154;28;20328;-60
2022/03/07 07:57:39;;;;;;;22.75;16.33;;;7.00;99.90;;;6.70;59.06;102694.56;5094776;28;20068;-60
2022/03/07 08:00:15;;;;;;;25.75;16.02;;;6.80;99.90;;;6.30;60.24;102684.16;5094942;28;20406;-60
2022/03/07 08:02:46;;;;;;;21.30;16.40;;;6.30;99.90;;;6.69;60.16;102700.66;5095055;28;20132;-61
2022/03/07 08:05:15;;;;;;;21.35;16.20;;;6.40;99.90;;;6.67;59.84;102720.72;5094768;28;20051;-60
2022/03/07 08:07:45;;;;;;;21.42;16.25;;;6.50;99.90;;;7.05;59.83;102696.84;5094848;28;20097;-60
2022/03/07 08:10:16;;;;;;;19.77;15.20;;;6.70;99.90;;;6.90;58.81;102706.78;5095177;28;20527;-60
2022/03/07 08:12:45;;;;;;;;;;;6.80;99.90;;;6.58;59.48;102699.34;5095460;28;20465;-60
2022/03/07 08:15:21;;;;;;;20.10;15.88;;;6.50;99.90;;;5.75;60.51;102691.34;5094818;28;20380;-59
2022/03/07 08:17:50;;;;;;;;;;;5.90;99.90;;;6.11;60.96;102711.38;5095650;28;20133;-60
2022/03/07 08:20:21;;;;;;;21.40;16.77;;;5.90;99.90;;;5.93;61.61;102699.16;5094542;28;19920;-59
2022/03/07 08:22:50;;;;;;;23.85;17.83;;;5.80;99.90;;;6.24;61.18;102702.28;5094621;28;20109;-60
2022/03/07 08:25:19;;;;;;;23.63;17.60;;;6.00;99.90;;;6.17;61.07;102697.59;5094579;28;20152;-61
2022/03/07 08:27:48;;;;;;;24.77;16.65;;;6.00;99.90;;;6.83;59.40;102704.75;5093451;28;20350;-61
2022/03/07 08:30:22;;;;;;;18.77;16.15;;;6.40;99.90;;;6.62;59.40;102696.88;5094619;28;20447;-61
2022/03/07 08:32:50;;;;;;;22.17;17.33;;;6.40;99.90;;;6.27;60.16;102703.28;5094297;28;20106;-60
2022/03/07 08:35:19;;;;;;;21.42;15.88;;;6.20;99.90;;;6.14;59.75;102687.84;5094282;28;20086;-60
2022/03/07 08:37:50;;;;;;;21.75;17.45;;;6.10;99.90;;;6.28;60.77;102706.84;5094781;28;20507;-62
2022/03/07 08:40:20;;;;;;;21.63;16.35;;;6.00;99.90;;;6.12;60.05;102707.00;5094298;28;20458;-61
2022/03/07 08:42:49;;;;;;;;;;;6.00;99.90;;;5.65;60.13;102691.78;5094484;28;20048;-61
2022/03/07 08:45:22;;;;;;;20.95;16.30;;;5.60;99.90;;;5.55;61.50;102699.16;5094229;28;20327;-61
2022/03/07 08:48:07;;;;;;;19.63;16.70;;;5.50;99.90;;;5.65;61.33;102712.78;5093871;28;20450;-60
2022/03/07 08:50:35;;;;;;;28.55;17.08;;;5.40;99.90;;;5.53;61.24;102713.09;5093777;28;20397;-61
2022/03/07 08:53:04;;;;;;;20.05;15.63;;;5.40;99.90;;;6.45;59.31;102710.16;5093544;28;20070;-60
2022/03/07 08:55:32;;;;;;;20.50;17.17;;;5.90;99.90;;;6.42;58.55;102702.16;5093944;28;20469;-60
2022/03/07 08:58:01;;;;;;;22.25;16.33;;;6.20;99.90;;;6.90;57.91;102712.03;5093638;28;20044;-61
2022/03/07 09:00:30;;;;;;;28.02;16.38;;;6.50;99.90;;;7.11;57.92;102702.34;5093490;28;20036;-60
2022/03/07 09:02:59;;;;;;;20.17;15.48;;;6.80;99.90;;;7.66;56.19;102706.25;5093551;28;20040;-62
2022/03/07 09:05:28;;;;;;;17.23;13.23;;;7.30;99.90;;;6.53;55.01;102695.59;5093467;28;20432;-60
2022/03/07 09:07:56;;;;;;;15.00;13.02;;;6.70;99.90;;;6.38;55.63;102703.75;5093470;28;20040;-61
2022/03/07 09:10:25;;;;;;;16.13;13.25;;;6.30;99.90;;;6.30;56.32;102707.78;5093626;28;20047;-60
2022/03/07 09:12:54;;;;;;;14.40;12.75;;;6.20;99.90;;;5.91;56.20;102709.59;5093139;28;20069;-60
2022/03/07 09:15:23;;;;;;;18.55;12.38;;;5.80;99.90;;;5.81;55.47;102699.50;5093362;28;20147;-60
2022/03/07 09:17:52;;;;;;;13.68;11.45;;;5.60;99.90;;;6.04;55.06;102711.94;5075118;28;20436;-61
2022/03/07 09:20:21;;;;;;;15.90;12.93;;;5.80;99.90;;;5.69;56.31;102696.31;5093557;28;20048;-61
2022/03/07 09:22:49;;;;;;;16.58;12.65;;;5.60;99.90;;;6.23;54.25;102703.13;5093324;28;20392;-60
2022/03/07 09:25:18;;;;;;;15.30;13.13;;;5.90;99.90;;;6.39;55.83;102695.94;5093053;28;20044;-60
2022/03/07 09:27:49;;;;;;;13.00;11.63;;;6.10;99.90;;;6.64;52.33;102668.03;5093237;28;20059;-61
2022/03/07 09:30:17;;;;;;;13.15;10.73;;;6.50;99.90;;;6.17;52.92;102692.34;5093001;28;20123;-61
2022/03/07 09:32:46;;;;;;;14.00;11.23;;;6.20;99.90;;;6.19;53.20;102685.44;5092923;28;20461;-61
2022/03/07 09:35:16;;;;;;;13.45;12.05;;;6.00;99.90;;;6.19;54.51;102683.69;5092912;28;20094;-61
2022/03/07 09:37:44;;;;;;;11.65;10.40;;;6.00;99.90;;;5.96;53.65;102691.44;5092887;28;20382;-61
2022/03/07 09:40:14;;;;;;;15.07;11.88;;;5.80;99.90;;;5.84;54.03;102686.53;5093051;28;20068;-61
2022/03/07 09:42:43;;;;;;;13.30;11.63;;;5.70;99.90;;;5.72;54.23;102685.97;5092886;28;20071;-62
2022/03/07 09:45:13;;;;;;;14.83;11.80;;;5.60;99.90;;;5.58;54.77;102691.41;5092776;28;20710;-60
2022/03/07 09:47:44;;;;;;;12.48;11.15;;;5.40;99.90;;;5.75;55.53;102680.84;5092718;28;20466;-60
2022/03/07 09:50:15;;;;;;;14.80;11.85;;;5.50;99.90;;;5.76;54.79;102674.78;5092941;28;20154;-61
2022/03/07 09:52:45;;;;;;;14.95;12.27;;;5.60;99.90;;;5.46;54.37;102650.69;5092900;28;20040;-61
2022/03/07 09:55:16;;;;;;;12.95;11.60;;;5.50;99.90;;;6.17;53.65;102664.34;5074543;28;20044;-61
2022/03/07 09:57:46;;;;;;;14.55;11.82;;;5.80;99.90;;;5.91;53.54;102679.81;5092471;28;20044;-60
2022/03/07 10:00:16;;;;;;;12.23;11.02;;;5.80;99.90;;;5.62;54.09;102639.13;5092595;28;20056;-61
2022/03/07 10:03:05;;;;;;;;;;;5.60;99.90;;;5.87;54.19;102660.41;5093204;28;20378;-61
2022/03/07 10:05:38;;;;;;;16.13;11.60;;;5.70;99.90;;;5.84;54.44;102659.38;5092507;28;19924;-61
2022/03/07 10:08:08;;;;;;;11.82;10.60;;;5.70;99.90;;;5.79;54.31;102664.38;5092507;28;20421;-61
2022/03/07 10:10:40;;;;;;;;;;;5.60;99.90;;;6.30;53.69;102652.63;5092757;28;20101;-61
2022/03/07 10:13:11;;;;;;;12.15;10.95;;;6.00;99.90;;;6.54;54.38;102648.38;5092543;28;19924;-62
2022/03/07 10:15:42;;;;;;;13.95;11.73;;;6.20;99.90;;;6.50;53.57;102666.56;5092679;28;20135;-61
2022/03/07 10:18:16;;;;;;;12.90;11.13;;;6.30;99.90;;;6.22;54.33;102647.03;5092280;28;20044;-61
2022/03/07 10:20:52;;;;;;;14.13;11.85;;;6.10;99.90;;;6.53;53.90;102654.44;5092220;28;20071;-61
2022/03/07 10:23:25;;;;;;;12.60;11.30;;;6.30;99.90;;;6.42;52.76;102649.59;5092848;28;20047;-61
2022/03/07 10:26:04;;;;;;;12.93;11.55;;;6.20;99.90;;;6.12;53.63;102636.97;5074358;28;20439;-60